This is the latest recevied weather packets stored in our database for station/object DF9PM-13. If no packets are shown the sender has not sent any weather packets the latest 10 day(s).
| Time | Temp. | Humidity | Pressure | Rain* | Wind** | Luminosity | Snow |
|---|---|---|---|---|---|---|---|
| 1777980655 | 22.22° C | 52% | 1008 hPa | - | - | - | - |
| 1777980355 | 22.22° C | 50% | 1008.1 hPa | - | - | - | - |
| 1777980055 | 21.67° C | 49% | 1008.1 hPa | - | - | - | - |
| 1777979755 | 21.67° C | 52% | 1008.1 hPa | - | - | - | - |
| 1777979455 | 22.22° C | 49% | 1008.2 hPa | - | - | - | - |
| 1777979155 | 22.22° C | 49% | 1008.2 hPa | - | - | - | - |
| 1777978855 | 22.78° C | 49% | 1008.2 hPa | - | - | - | - |
| 1777978554 | 22.78° C | 50% | 1008.3 hPa | - | - | - | - |
| 1777978254 | 23.33° C | 47% | 1008.3 hPa | - | - | - | - |
| 1777977954 | 22.22° C | 51% | 1008.3 hPa | - | - | - | - |
| 1777977654 | 23.33° C | 48% | 1008.4 hPa | - | - | - | - |
| 1777977355 | 23.33° C | 49% | 1008.5 hPa | - | - | - | - |
| 1777977054 | 22.22° C | 51% | 1008.5 hPa | - | - | - | - |
| 1777976754 | 23.33° C | 51% | 1008.5 hPa | - | - | - | - |
| 1777976454 | 23.33° C | 53% | 1008.5 hPa | - | - | - | - |
| 1777976154 | 22.22° C | 53% | 1008.6 hPa | - | - | - | - |
| 1777975854 | 22.22° C | 55% | 1008.6 hPa | - | - | - | - |
| 1777975554 | 21.67° C | 56% | 1008.7 hPa | - | - | - | - |
| 1777975254 | 22.22° C | 52% | 1008.6 hPa | - | - | - | - |
| 1777974954 | 22.22° C | 52% | 1008.6 hPa | - | - | - | - |
| 1777974654 | 20.56° C | 57% | 1008.7 hPa | - | - | - | - |
| 1777974354 | 21.11° C | 57% | 1008.8 hPa | - | - | - | - |
| 1777974054 | 22.22° C | 51% | 1008.7 hPa | - | - | - | - |
| 1777973754 | 22.22° C | 54% | 1008.7 hPa | - | - | - | - |
| 1777973453 | 23.33° C | 49% | 1008.7 hPa | - | - | - | - |
* Rain since midnight (hover to see other rain measurements)
** Current wind speed in m/s (hover to see current wind gust speed)